Time;durP1;ratioP1;P1;durP2;ratioP2;P2;SDS_P1;SDS_P2;PMS_P1;PMS_P2;Temp;Humidity;BMP_temperature;BMP_pressure;BME280_temperature;BME280_humidity;BME280_pressure;Samples;Min_cycle;Max_cycle;Signal;HPM_P1;HPM_P2
2022/04/15 00:01:16;;;;;;;10.38;6.47;;;;;;;8.96;72.36;102374.44;4982078;28;20076;-78
2022/04/15 00:03:43;;;;;;;10.15;6.40;;;;;;;8.91;72.85;102380.47;4981118;28;20072;-78
2022/04/15 00:06:10;;;;;;;8.07;5.43;;;;;;;8.90;72.55;102383.91;4976816;28;20126;-78
2022/04/15 00:08:36;;;;;;;7.85;4.97;;;;;;;8.87;72.25;102383.88;4977822;28;20411;-78
2022/04/15 00:11:02;;;;;;;7.68;4.63;;;;;;;8.82;71.71;102386.47;4980787;28;20074;-78
2022/04/15 00:13:29;;;;;;;6.00;3.70;;;;;;;8.76;71.35;102381.22;4981832;28;20094;-78
2022/04/15 00:15:55;;;;;;;5.57;3.85;;;;;;;8.73;71.52;102382.06;4984929;28;20453;-78
2022/04/15 00:18:21;;;;;;;8.63;4.72;;;;;;;8.70;72.15;102382.06;4980798;28;20217;-78
2022/04/15 00:20:46;;;;;;;8.85;4.82;;;;;;;8.68;72.05;102380.31;4979231;28;20234;-78
2022/04/15 00:23:11;;;;;;;8.55;5.20;;;;;;;8.63;72.25;102380.25;4979196;28;20434;-78
2022/04/15 00:25:36;;;;;;;7.40;5.25;;;;;;;8.59;72.09;102384.56;4982079;28;20285;-78
2022/04/15 00:28:02;;;;;;;7.68;4.95;;;;;;;8.55;72.37;102382.78;4979549;28;20030;-78
2022/04/15 00:30:27;;;;;;;8.13;5.10;;;;;;;8.53;72.19;102387.13;4975306;28;20506;-78
2022/04/15 00:32:52;;;;;;;8.68;5.13;;;;;;;8.48;72.45;102381.88;4980037;28;20023;-78
2022/04/15 00:35:18;;;;;;;7.45;5.28;;;;;;;8.45;73.01;102392.22;4979676;28;20397;-78
2022/04/15 00:37:43;;;;;;;9.52;5.07;;;;;;;8.39;73.12;102388.69;4979274;28;20029;-78
2022/04/15 00:40:10;;;;;;;8.90;5.10;;;;;;;8.34;73.16;102389.53;4977895;28;20394;-78
2022/04/15 00:42:35;;;;;;;7.25;5.10;;;;;;;8.32;74.55;102396.44;4979733;28;20018;-78
2022/04/15 00:45:02;;;;;;;9.57;6.10;;;;;;;8.31;74.48;102402.47;4978290;28;20026;-78
2022/04/15 00:47:54;;;;;;;10.10;5.75;;;;;;;8.27;73.30;102408.47;4976877;28;20030;-78
2022/04/15 00:50:20;;;;;;;7.32;5.13;;;;;;;8.23;73.40;102401.50;4982237;28;20426;-78
2022/04/15 00:52:47;;;;;;;9.45;5.18;;;;;;;8.19;73.71;102399.78;4979542;28;20818;-78
2022/04/15 00:55:14;;;;;;;10.75;5.57;;;;;;;8.15;74.34;102398.84;4966088;28;20070;-78
2022/04/15 00:57:41;;;;;;;9.18;5.85;;;;;;;8.12;74.91;102397.97;4975379;28;20125;-78
2022/04/15 01:00:09;;;;;;;9.55;5.97;;;;;;;8.11;74.56;102401.41;4970341;28;20070;-78
2022/04/15 01:02:34;;;;;;;9.50;6.25;;;;;;;8.12;75.07;102401.41;4978225;28;20419;-78
2022/04/15 01:05:02;;;;;;;12.80;5.93;;;;;;;8.10;74.51;102399.66;4976499;28;20532;-78
2022/04/15 01:07:35;;;;;;;9.98;6.32;;;;;;;8.11;74.43;102404.00;4978830;28;20516;-78
2022/04/15 01:10:02;;;;;;;9.18;5.53;;;;;;;8.05;74.35;102403.06;4979048;28;20035;-78
2022/04/15 01:12:29;;;;;;;7.70;5.47;;;;;;;8.01;74.37;102405.63;4979605;28;20022;-78
2022/04/15 01:15:00;;;;;;;9.50;6.22;;;;;;;7.97;75.01;102409.03;4983016;28;20061;-78
2022/04/15 01:17:27;;;;;;;9.27;6.10;;;;;;;7.96;74.79;102403.00;4978027;28;20050;-78
2022/04/15 01:19:52;;;;;;;9.02;5.57;;;;;;;7.94;74.64;102407.28;4980491;28;20030;-78
2022/04/15 01:22:24;;;;;;;7.53;4.60;;;;;;;7.88;74.08;102413.28;4976922;28;20047;-78
2022/04/15 01:24:49;;;;;;;7.88;5.25;;;;;;;7.86;74.48;102412.41;4973703;28;20179;-78
2022/04/15 01:27:27;;;;;;;8.80;4.88;;;;;;;7.85;74.56;102414.97;4978923;28;20898;-78
2022/04/15 01:29:53;;;;;;;9.85;6.18;;;;;;;7.84;75.41;102418.44;4979294;28;20145;-78
2022/04/15 01:32:18;;;;;;;11.45;6.25;;;;;;;7.86;75.60;102414.09;4977565;28;20130;-78
2022/04/15 01:34:44;;;;;;;10.27;6.53;;;;;;;7.85;75.50;102417.56;4977685;28;20027;-78
2022/04/15 01:37:14;;;;;;;8.82;5.53;;;;;;;7.83;75.02;102421.88;4980321;28;20445;-78
2022/04/15 01:39:40;;;;;;;6.00;4.03;;;;;;;7.81;74.75;102419.25;4979119;28;20045;-78
2022/04/15 01:42:05;;;;;;;5.00;3.30;;;;;;;7.80;74.48;102421.81;4978968;28;20035;-78
2022/04/15 01:44:30;;;;;;;6.38;3.05;;;;;;;7.78;74.63;102416.59;4977080;28;20022;-78
2022/04/15 01:46:55;;;;;;;8.45;5.07;;;;;;;7.78;75.27;102416.59;4978897;28;20065;-78
2022/04/15 01:49:21;;;;;;;7.30;4.40;;;;;;;7.74;74.78;102425.22;4976486;28;20368;-78
2022/04/15 01:51:46;;;;;;;7.88;5.13;;;;;;;7.69;75.40;102429.47;4979333;28;20030;-78
2022/04/15 01:54:11;;;;;;;5.00;3.25;;;;;;;7.63;74.52;102432.84;4976496;28;20039;-78
2022/04/15 01:56:37;;;;;;;6.63;3.30;;;;;;;7.60;75.09;102425.91;4974788;28;20035;-78
2022/04/15 01:59:04;;;;;;;6.65;4.32;;;;;;;7.62;75.34;102433.72;4973671;28;20478;-78
2022/04/15 02:01:29;;;;;;;8.25;4.95;;;;;;;7.62;75.39;102430.22;4955615;28;20398;-78
2022/04/15 02:03:54;;;;;;;8.93;4.82;;;;;;;7.59;75.44;102434.56;4975937;28;20022;-78
2022/04/15 02:06:20;;;;;;;9.30;5.65;;;;;;;7.57;75.75;102435.34;4978884;28;20026;-78
2022/04/15 02:08:45;;;;;;;9.75;6.05;;;;;;;7.54;75.66;102430.13;4973841;28;20549;-78
2022/04/15 02:11:10;;;;;;;11.93;7.28;;;;;;;7.52;76.37;102430.13;4976781;28;20438;-78
2022/04/15 02:13:36;;;;;;;10.07;6.78;;;;;;;7.51;76.46;102428.38;4979530;28;20033;-78
2022/04/15 02:16:01;;;;;;;13.95;8.25;;;;;;;7.53;76.78;102433.56;4973925;28;20023;-78
2022/04/15 02:18:26;;;;;;;13.75;8.82;;;;;;;7.53;77.27;102437.06;4979821;28;20035;-78
2022/04/15 02:20:54;;;;;;;19.63;10.52;;;;;;;7.54;77.79;102440.50;4975186;28;20046;-78
2022/04/15 02:23:20;;;;;;;15.60;9.75;;;;;;;7.48;77.79;102440.44;4974560;28;20533;-78
2022/04/15 02:25:45;;;;;;;17.88;10.63;;;;;;;7.43;78.16;102446.41;4973239;28;20106;-78
2022/04/15 02:28:10;;;;;;;16.90;10.32;;;;;;;7.37;78.45;102448.91;4973726;28;20029;-78
2022/04/15 02:30:35;;;;;;;17.67;10.52;;;;;;;7.38;78.91;102450.66;4975734;28;20034;-78
2022/04/15 02:33:01;;;;;;;18.90;11.00;;;;;;;7.36;78.90;102451.50;4973911;28;21543;-78
2022/04/15 02:35:26;;;;;;;16.25;10.50;;;;;;;7.33;78.72;102452.34;4976846;28;20042;-78
2022/04/15 02:37:51;;;;;;;16.90;10.60;;;;;;;7.32;79.25;102450.59;4976427;28;20454;-78
2022/04/15 02:40:17;;;;;;;17.08;10.50;;;;;;;7.31;79.56;102451.44;4972860;28;20027;-78
2022/04/15 02:42:42;;;;;;;17.08;9.93;;;;;;;7.32;79.78;102460.94;4973068;28;20015;-78
2022/04/15 02:45:08;;;;;;;17.73;10.57;;;;;;;7.33;79.55;102454.91;4975741;28;20561;-78
2022/04/15 02:47:33;;;;;;;17.85;9.82;;;;;;;7.35;79.42;102463.56;4972164;28;20105;-78
2022/04/15 02:49:59;;;;;;;14.02;9.60;;;;;;;7.34;79.32;102454.06;4975708;28;20521;-78
2022/04/15 02:52:24;;;;;;;14.13;8.98;;;;;;;7.35;78.53;102460.97;4974682;28;20058;-78
2022/04/15 02:54:49;;;;;;;13.75;8.85;;;;;;;7.33;78.75;102460.09;4975214;28;20027;-78
2022/04/15 02:57:14;;;;;;;16.48;9.30;;;;;;;7.34;78.77;102464.44;4976185;28;20030;-78
2022/04/15 02:59:40;;;;;;;14.25;9.57;;;;;;;7.34;79.18;102459.25;4975128;28;20057;-78
2022/04/15 03:02:05;;;;;;;15.60;9.90;;;;;;;7.36;79.56;102457.53;4978215;28;20037;-78
2022/04/15 03:04:30;;;;;;;16.10;9.90;;;;;;;7.35;79.29;102460.97;4975358;28;20046;-78
2022/04/15 03:06:56;;;;;;;17.88;10.82;;;;;;;7.35;79.21;102460.09;4973302;28;20042;-78
2022/04/15 03:09:21;;;;;;;15.05;10.27;;;;;;;7.32;79.13;102460.94;4972967;28;20041;-78
2022/04/15 03:11:47;;;;;;;14.38;8.95;;;;;;;7.30;78.87;102460.06;4973639;28;20030;-78
2022/04/15 03:14:12;;;;;;;14.60;8.70;;;;;;;7.27;78.54;102462.59;4973214;28;20069;-77
2022/04/15 03:16:38;;;;;;;11.82;7.63;;;;;;;7.23;78.12;102461.69;4972399;28;20068;-78
2022/04/15 03:19:03;;;;;;;12.18;7.85;;;;;;;7.21;78.24;102457.31;4974332;28;20030;-78
2022/04/15 03:21:28;;;;;;;11.07;7.43;;;;;;;7.17;78.27;102455.56;4975316;28;20371;-78
2022/04/15 03:23:54;;;;;;;10.30;6.57;;;;;;;7.12;78.08;102452.88;4972078;28;20034;-78
2022/04/15 03:26:19;;;;;;;14.25;7.88;;;;;;;7.08;78.50;102457.16;4974404;28;20502;-78
2022/04/15 03:28:45;;;;;;;12.00;7.18;;;;;;;7.04;78.33;102463.13;4973545;28;20030;-78
2022/04/15 03:31:10;;;;;;;12.32;7.03;;;;;;;7.00;77.96;102463.94;4974782;28;20030;-78
2022/04/15 03:33:36;;;;;;;12.05;7.03;;;;;;;6.96;78.16;102468.16;4976519;28;20121;-78
2022/04/15 03:36:01;;;;;;;13.10;7.07;;;;;;;6.91;77.46;102468.94;4976095;28;20044;-78
2022/04/15 03:38:27;;;;;;;16.95;7.68;;;;;;;6.87;77.67;102474.91;4978287;28;20186;-78
2022/04/15 03:40:52;;;;;;;46.75;9.35;;;;;;;6.82;79.38;102480.91;4978515;28;20493;-78
2022/04/15 03:43:17;;;;;;;61.28;9.57;;;;;;;6.77;79.83;102474.78;4980737;28;20026;-78
2022/04/15 03:45:42;;;;;;;17.00;9.73;;;;;;;6.76;79.95;102480.78;4983816;28;20037;-78
2022/04/15 03:48:08;;;;;;;14.95;9.73;;;;;;;6.77;79.83;102479.06;4981467;28;20393;-78
2022/04/15 03:50:33;;;;;;;20.95;9.88;;;;;;;6.76;79.58;102479.91;4980951;28;20113;-78
2022/04/15 03:52:59;;;;;;;25.05;10.13;;;;;;;6.77;80.10;102477.38;4981158;28;20482;-78
2022/04/15 03:55:25;;;;;;;27.63;10.82;;;;;;;6.79;80.82;102488.63;4977447;28;20034;-78
2022/04/15 03:57:50;;;;;;;15.25;10.70;;;;;;;6.86;81.34;102488.69;4978070;28;20054;-78
2022/04/15 04:00:25;;;;;;;17.60;10.13;;;;;;;6.94;80.77;102494.88;4979347;28;20051;-78
2022/04/15 04:02:54;;;;;;;24.92;10.85;;;;;;;6.99;81.08;102495.84;4982247;28;20106;-78
2022/04/15 04:05:23;;;;;;;25.40;10.40;;;;;;;7.02;80.84;102498.44;4980057;28;20046;-78
2022/04/15 04:07:49;;;;;;;22.42;11.15;;;;;;;7.05;81.18;102501.09;4978467;28;20045;-78
2022/04/15 04:10:15;;;;;;;20.65;10.80;;;;;;;7.05;80.85;102493.31;4976567;28;20026;-78
2022/04/15 04:12:42;;;;;;;17.85;9.63;;;;;;;7.05;81.09;102495.91;4981978;28;20101;-78
2022/04/15 04:15:09;;;;;;;19.90;10.88;;;;;;;6.99;81.31;102501.00;4978229;28;20447;-78
2022/04/15 04:17:34;;;;;;;17.75;10.82;;;;;;;6.98;81.34;102507.03;4977608;28;20045;-78
2022/04/15 04:20:01;;;;;;;32.40;10.35;;;;;;;6.97;81.75;102510.47;4981293;28;20027;-78
2022/04/15 04:22:31;;;;;;;15.48;9.95;;;;;;;6.96;81.52;102504.41;4980550;28;20046;-78
2022/04/15 04:24:56;;;;;;;18.23;10.75;;;;;;;6.97;81.88;102510.47;4976769;28;20046;-78
2022/04/15 04:27:22;;;;;;;18.88;10.73;;;;;;;6.98;81.74;102507.03;4976912;28;20027;-77
2022/04/15 04:29:47;;;;;;;21.17;10.80;;;;;;;6.98;81.99;102509.63;4977430;28;20026;-77
2022/04/15 04:32:14;;;;;;;22.10;11.23;;;;;;;7.03;81.82;102523.47;4982683;28;20044;-78
2022/04/15 04:34:39;;;;;;;27.20;11.13;;;;;;;6.99;82.40;102519.13;4976175;28;20105;-78
2022/04/15 04:37:05;;;;;;;29.67;11.30;;;;;;;6.98;81.86;102517.38;4976823;28;20117;-78
2022/04/15 04:39:30;;;;;;;25.27;11.07;;;;;;;6.94;82.08;102525.94;4976502;28;20058;-78
2022/04/15 04:41:57;;;;;;;15.18;9.90;;;;;;;6.94;82.28;102525.94;4975964;28;20031;-78
2022/04/15 04:44:22;;;;;;;17.98;9.63;;;;;;;6.95;82.31;102532.84;4979275;28;20049;-77
2022/04/15 04:46:48;;;;;;;24.73;9.50;;;;;;;6.90;82.39;102534.47;4978148;28;20397;-78
2022/04/15 04:49:13;;;;;;;17.48;9.05;;;;;;;6.86;82.16;102538.72;4979901;28;20582;-78
2022/04/15 04:51:39;;;;;;;20.73;8.45;;;;;;;6.83;82.08;102539.53;4980272;28;20038;-78
2022/04/15 04:54:04;;;;;;;15.57;8.27;;;;;;;6.78;81.88;102541.19;4981181;28;20164;-77
2022/04/15 04:56:29;;;;;;;10.95;7.80;;;;;;;6.74;81.22;102546.28;4974728;28;20034;-77
2022/04/15 04:58:55;;;;;;;9.88;7.35;;;;;;;6.70;81.51;102553.09;4958311;28;20027;-78
2022/04/15 05:01:20;;;;;;;14.35;7.65;;;;;;;6.64;81.66;102559.03;4977615;28;20113;-78
2022/04/15 05:03:45;;;;;;;15.05;7.65;;;;;;;6.59;81.79;102564.97;4978459;28;20033;-78
2022/04/15 05:06:10;;;;;;;17.83;8.38;;;;;;;6.61;82.20;102573.63;4978096;28;20041;-78
2022/04/15 05:08:36;;;;;;;17.60;8.38;;;;;;;6.60;82.50;102562.41;4980213;28;20042;-78
2022/04/15 05:11:01;;;;;;;16.38;8.25;;;;;;;6.62;82.43;102565.03;4977822;28;20438;-78
2022/04/15 05:13:26;;;;;;;20.17;7.63;;;;;;;6.64;83.10;102574.56;4975712;28;20066;-77
2022/04/15 05:15:51;;;;;;;12.25;8.43;;;;;;;6.69;82.40;102574.63;4975938;28;20414;-78
2022/04/15 05:18:17;;;;;;;11.13;7.43;;;;;;;6.74;82.40;102570.44;4975271;28;20030;-78
2022/04/15 05:20:42;;;;;;;20.70;9.38;;;;;;;6.72;82.66;102564.34;4974095;28;20446;-77
2022/04/15 05:23:07;;;;;;;12.32;8.25;;;;;;;6.70;83.13;102570.34;4977883;28;20042;-77
2022/04/15 05:25:32;;;;;;;11.52;7.78;;;;;;;6.75;83.51;102572.16;4978392;28;21850;-77
2022/04/15 05:27:58;;;;;;;13.20;8.73;;;;;;;6.82;83.23;102586.09;4978301;28;20409;-77
2022/04/15 05:30:24;;;;;;;11.70;8.20;;;;;;;6.84;83.32;102587.84;4979440;28;20041;-77
2022/04/15 05:32:49;;;;;;;11.75;7.50;;;;;;;6.91;83.07;102594.03;4982009;28;20488;-77
2022/04/15 05:35:15;;;;;;;15.05;8.90;;;;;;;6.96;83.15;102596.69;4958733;28;20113;-78
2022/04/15 05:37:40;;;;;;;15.00;8.70;;;;;;;6.99;83.05;102595.03;4974708;28;20289;-78
2022/04/15 05:40:06;;;;;;;13.80;8.68;;;;;;;7.03;83.52;102598.53;4979712;28;20027;-78
2022/04/15 05:42:31;;;;;;;12.90;8.10;;;;;;;7.08;83.12;102602.06;4978970;28;20022;-78
2022/04/15 05:44:56;;;;;;;13.82;9.13;;;;;;;7.11;83.53;102602.13;4974022;28;20044;-77
2022/04/15 05:47:22;;;;;;;13.55;8.55;;;;;;;7.17;83.38;102608.25;4982151;28;20442;-78
2022/04/15 05:49:47;;;;;;;14.57;8.82;;;;;;;7.19;83.58;102611.72;4980568;28;20078;-79
2022/04/15 05:52:14;;;;;;;13.85;8.57;;;;;;;7.21;83.40;102612.63;4978604;28;20053;-78
2022/04/15 05:54:39;;;;;;;13.23;8.48;;;;;;;7.23;83.24;102619.59;4978014;28;20030;-78
2022/04/15 05:57:05;;;;;;;12.80;8.32;;;;;;;7.25;83.29;102623.09;4979949;28;20030;-77
2022/04/15 05:59:30;;;;;;;14.48;8.68;;;;;;;7.27;83.48;102633.44;4981693;28;20037;-77
2022/04/15 06:01:55;;;;;;;14.00;8.18;;;;;;;7.30;83.79;102630.91;4981788;28;20124;-78
2022/04/15 06:04:20;;;;;;;13.25;8.25;;;;;;;7.38;83.38;102641.41;4983479;28;20045;-78
2022/04/15 06:06:47;;;;;;;14.98;8.48;;;;;;;7.42;83.76;102638.03;4983256;28;20038;-78
2022/04/15 06:09:12;;;;;;;14.95;8.45;;;;;;;7.48;83.85;102637.25;4966586;28;20026;-78
2022/04/15 06:11:39;;;;;;;12.70;8.02;;;;;;;7.52;83.49;102631.25;4983508;28;20084;-78
2022/04/15 06:14:06;;;;;;;14.60;8.60;;;;;;;7.57;83.07;102632.19;4984593;28;20029;-78
2022/04/15 06:16:32;;;;;;;15.20;8.95;;;;;;;7.59;83.25;102646.06;4983278;28;20033;-78
2022/04/15 06:19:00;;;;;;;13.90;8.45;;;;;;;7.64;83.46;102636.66;4986569;28;20026;-78
2022/04/15 06:21:25;;;;;;;13.60;8.48;;;;;;;7.68;82.71;102654.00;4981835;28;20062;-78
2022/04/15 06:23:51;;;;;;;14.40;9.00;;;;;;;7.70;83.35;102647.09;4984172;28;20104;-78
2022/04/15 06:26:16;;;;;;;12.95;7.85;;;;;;;7.73;83.19;102647.13;4979671;28;20042;-78
2022/04/15 06:28:41;;;;;;;14.57;8.20;;;;;;;7.77;83.00;102650.63;4980701;28;20101;-79
2022/04/15 06:31:06;;;;;;;13.20;7.78;;;;;;;7.83;82.33;102652.47;4984768;28;20496;-79
2022/04/15 06:33:32;;;;;;;19.20;9.10;;;;;;;7.81;82.17;102651.56;4984060;28;20057;-79
2022/04/15 06:35:59;;;;;;;14.95;8.65;;;;;;;7.80;82.74;102655.88;4982263;28;20038;-79
2022/04/15 06:38:24;;;;;;;14.82;8.80;;;;;;;7.84;83.02;102659.41;4983254;28;20109;-78
2022/04/15 06:40:50;;;;;;;14.77;8.85;;;;;;;7.87;82.46;102662.91;4985693;28;20478;-78
2022/04/15 06:43:15;;;;;;;14.82;8.55;;;;;;;7.93;82.48;102666.44;4985184;28;20022;-78
2022/04/15 06:45:41;;;;;;;13.48;8.40;;;;;;;7.92;82.32;102664.69;4982504;28;20026;-78
2022/04/15 06:48:06;;;;;;;13.43;8.15;;;;;;;7.92;82.09;102669.88;4983738;28;20027;-78
2022/04/15 06:50:32;;;;;;;13.80;8.40;;;;;;;7.89;82.20;102670.69;4982273;28;20026;-78
2022/04/15 06:52:57;;;;;;;14.10;8.15;;;;;;;7.92;82.07;102681.09;4982450;28;20493;-78
2022/04/15 06:55:22;;;;;;;13.50;7.65;;;;;;;7.97;82.66;102674.28;4968077;28;20030;-78
2022/04/15 06:57:48;;;;;;;11.43;7.47;;;;;;;8.11;82.40;102673.59;4984075;28;20481;-78
2022/04/15 07:00:13;;;;;;;12.15;7.13;;;;;;;8.28;82.20;102668.66;4981286;28;20053;-79
2022/04/15 07:02:42;;;;;;;12.57;7.00;;;;;;;8.49;81.97;102675.88;4982687;28;20480;-79
2022/04/15 07:05:09;;;;;;;9.80;6.55;;;;;;;8.68;81.22;102679.56;4986510;28;20089;-79
2022/04/15 07:07:39;;;;;;;11.02;6.82;;;;;;;8.75;78.83;102675.31;4984532;28;20095;-78
2022/04/15 07:10:07;;;;;;;12.05;7.30;;;;;;;8.76;78.03;102677.94;4984949;28;20529;-78
2022/04/15 07:12:32;;;;;;;10.32;6.20;;;;;;;8.82;78.06;102679.72;4983259;28;20030;-79
2022/04/15 07:14:57;;;;;;;10.02;6.45;;;;;;;8.91;78.18;102682.41;4984172;28;20172;-79
2022/04/15 07:17:24;;;;;;;11.80;6.57;;;;;;;8.96;78.42;102691.13;4988778;28;20112;-78
2022/04/15 07:19:49;;;;;;;9.98;6.93;;;;;;;8.97;77.69;102686.78;4986660;28;20110;-79
2022/04/15 07:22:19;;;;;;;10.23;7.43;;;;;;;9.01;77.86;102687.72;4986649;28;20084;-78
2022/04/15 07:24:45;;;;;;;12.80;7.05;;;;;;;9.06;77.83;102686.00;4987285;28;20045;-78
2022/04/15 07:27:10;;;;;;;11.27;7.50;;;;;;;9.07;77.70;102692.94;4985996;28;20034;-78
2022/04/15 07:29:35;;;;;;;12.18;6.88;;;;;;;9.07;77.12;102692.94;4987357;28;20034;-79
2022/04/15 07:32:01;;;;;;;11.52;6.85;;;;;;;9.07;75.99;102692.94;4986127;28;20026;-79
2022/04/15 07:34:26;;;;;;;9.88;6.32;;;;;;;9.05;76.27;102694.69;4989242;28;20066;-78
2022/04/15 07:36:54;;;;;;;9.45;6.30;;;;;;;9.02;75.59;102699.84;4988128;28;20027;-78
2022/04/15 07:39:21;;;;;;;9.27;6.03;;;;;;;9.01;75.86;102695.50;4984530;28;20568;-79
2022/04/15 07:41:47;;;;;;;9.80;6.88;;;;;;;9.02;76.54;102694.66;4985969;28;20417;-78
2022/04/15 07:44:14;;;;;;;10.70;6.40;;;;;;;9.09;75.37;102697.31;4987210;28;20470;-79
2022/04/15 07:46:41;;;;;;;9.40;6.70;;;;;;;9.16;75.15;102695.66;4984575;28;20108;-78
2022/04/15 07:49:07;;;;;;;10.57;6.72;;;;;;;9.21;74.30;102701.78;4984460;28;20389;-78
2022/04/15 07:51:34;;;;;;;11.85;6.88;;;;;;;9.22;75.09;102702.63;4985068;28;20146;-78
2022/04/15 07:54:00;;;;;;;10.25;6.63;;;;;;;9.25;75.46;102700.94;4984250;28;21431;-78
2022/04/15 07:56:25;;;;;;;10.25;7.07;;;;;;;9.30;75.28;102710.50;4984195;28;20710;-78
2022/04/15 07:58:50;;;;;;;11.30;6.63;;;;;;;9.35;75.95;102703.63;4984441;28;20157;-78
2022/04/15 08:01:17;;;;;;;10.65;7.00;;;;;;;9.41;75.13;102709.75;4983120;28;20088;-80
2022/04/15 08:03:42;;;;;;;10.70;6.63;;;;;;;9.46;75.35;102701.13;4965660;28;20026;-79
2022/04/15 08:06:08;;;;;;;10.63;6.82;;;;;;;9.50;74.69;102701.16;4981454;28;20032;-79
2022/04/15 08:08:33;;;;;;;8.35;6.10;;;;;;;9.55;74.70;102696.00;4984827;28;20097;-79
2022/04/15 08:10:58;;;;;;;10.35;6.20;;;;;;;9.64;74.38;102706.50;4982164;28;20041;-79
2022/04/15 08:13:24;;;;;;;10.20;7.07;;;;;;;9.73;72.42;102700.50;4985483;28;20109;-79
2022/04/15 08:15:53;;;;;;;8.35;6.22;;;;;;;9.86;74.25;102707.53;4988645;28;20125;-79
2022/04/15 08:18:22;;;;;;;8.98;6.40;;;;;;;10.02;73.75;102705.03;4986066;28;20033;-80
2022/04/15 08:20:48;;;;;;;11.60;6.45;;;;;;;10.11;72.13;102697.28;4983980;28;20937;-80
2022/04/15 08:23:14;;;;;;;9.75;6.60;;;;;;;10.18;72.65;102709.47;4985283;28;20517;-79
2022/04/15 08:25:40;;;;;;;9.75;6.28;;;;;;;10.23;71.15;102711.22;4984346;28;20034;-79
2022/04/15 08:28:05;;;;;;;9.75;6.28;;;;;;;10.27;71.57;102706.06;4984621;28;20093;-79
2022/04/15 08:30:34;;;;;;;9.18;6.25;;;;;;;10.32;71.77;102711.28;4985406;28;20043;-80
2022/04/15 08:33:02;;;;;;;10.45;6.07;;;;;;;10.37;71.85;102708.69;4987076;28;20053;-79
2022/04/15 08:35:27;;;;;;;9.50;6.25;;;;;;;10.43;70.78;102714.81;4967556;28;20034;-79
2022/04/15 08:37:53;;;;;;;8.32;6.05;;;;;;;10.49;70.23;102701.00;4985530;28;20042;-79
2022/04/15 08:40:18;;;;;;;9.57;6.30;;;;;;;10.56;69.73;102704.50;4985024;28;20030;-79
2022/04/15 08:42:44;;;;;;;8.70;5.88;;;;;;;10.60;69.07;102706.22;4984873;28;20038;-79
2022/04/15 08:45:12;;;;;;;9.65;5.68;;;;;;;10.67;68.36;102713.22;4965911;28;20034;-79
2022/04/15 08:47:38;;;;;;;10.10;5.82;;;;;;;10.73;69.58;102712.34;4967254;28;20165;-79
2022/04/15 08:50:05;;;;;;;7.97;5.97;;;;;;;10.78;68.96;102721.91;4985025;28;20485;-79
2022/04/15 08:52:31;;;;;;;9.85;6.15;;;;;;;10.84;69.07;102712.41;4984980;28;20033;-80
2022/04/15 08:54:58;;;;;;;8.68;5.78;;;;;;;10.93;68.22;102721.13;4968785;28;20034;-80
2022/04/15 08:57:24;;;;;;;8.88;5.25;;;;;;;11.07;69.01;102728.09;4987778;28;20034;-80
2022/04/15 08:59:50;;;;;;;8.77;5.72;;;;;;;11.16;67.85;102727.25;4986653;28;20066;-79
2022/04/15 09:02:32;;;;;;;8.80;5.72;;;;;;;11.22;68.48;102725.50;4969026;28;20027;-79
2022/04/15 09:04:58;;;;;;;7.82;5.32;;;;;;;11.26;66.24;102729.03;4985768;28;20057;-79
2022/04/15 09:07:28;;;;;;;7.05;5.10;;;;;;;11.35;66.63;102733.38;4987689;28;20030;-79
2022/04/15 09:09:56;;;;;;;6.95;5.07;;;;;;;11.43;66.65;102730.78;4969389;28;20417;-79
2022/04/15 09:12:26;;;;;;;9.45;4.93;;;;;;;11.48;67.12;102734.25;4987013;28;20029;-80
2022/04/15 09:14:53;;;;;;;8.73;5.43;;;;;;;11.58;66.80;102735.13;4986208;28;20038;-80
2022/04/15 09:17:22;;;;;;;8.23;5.25;;;;;;;11.62;66.05;102737.72;4985962;28;20041;-80
2022/04/15 09:19:48;;;;;;;8.15;4.93;;;;;;;11.65;64.45;102742.94;4986244;28;20092;-79
2022/04/15 09:22:17;;;;;;;6.30;4.53;;;;;;;11.68;65.34;102744.69;4987072;28;20058;-79
2022/04/15 09:24:43;;;;;;;8.48;5.25;;;;;;;11.71;64.24;102739.47;4986568;28;20130;-80
2022/04/15 09:27:08;;;;;;;6.68;5.15;;;;;;;11.73;64.81;102744.69;4985645;28;20134;-79
2022/04/15 09:29:41;;;;;;;7.47;4.97;;;;;;;11.77;66.55;102747.28;4988564;28;20038;-79
2022/04/15 09:32:10;;;;;;;7.20;4.70;;;;;;;11.77;63.78;102746.44;4987117;28;20408;-79
2022/04/15 09:35:17;;;;;;;6.18;4.50;;;;;;;11.82;64.64;102744.69;4984502;28;20035;-80
2022/04/15 09:37:43;;;;;;;5.20;4.38;;;;;;;11.90;62.95;102753.38;4979329;28;20097;-80
2022/04/15 09:40:18;;;;;;;6.32;4.70;;;;;;;11.99;64.08;102748.19;4964929;28;20038;-79
2022/04/15 09:42:54;;;;;;;7.05;4.80;;;;;;;12.09;64.70;102759.47;4987986;28;20022;-79
2022/04/15 09:45:33;;;;;;;8.63;4.72;;;;;;;12.16;63.68;102764.69;4986774;28;20049;-79
2022/04/15 09:47:59;;;;;;;7.55;5.35;;;;;;;12.19;63.47;102765.56;4984447;28;20040;-79
2022/04/15 09:50:28;;;;;;;6.90;4.85;;;;;;;12.27;61.99;102758.59;4984283;28;20042;-79
2022/04/15 09:53:13;;;;;;;7.22;4.85;;;;;;;12.29;63.21;102759.47;4984435;28;20045;-79
2022/04/15 09:55:40;;;;;;;6.53;4.50;;;;;;;12.32;60.50;102765.53;4986704;28;20026;-79
2022/04/15 09:58:11;;;;;;;7.20;4.80;;;;;;;12.27;60.63;102758.59;4986777;28;20034;-78
2022/04/15 10:00:38;;;;;;;5.95;4.90;;;;;;;12.26;61.24;102758.56;4984889;28;20541;-79
2022/04/15 10:03:11;;;;;;;6.38;4.55;;;;;;;12.25;61.99;102755.13;4983772;28;20030;-79
2022/04/15 10:05:38;;;;;;;6.65;4.50;;;;;;;12.22;59.98;102754.22;4984884;28;21307;-79
2022/04/15 10:08:04;;;;;;;5.82;4.47;;;;;;;12.20;60.95;102756.84;4969684;28;20118;-79
2022/04/15 10:10:31;;;;;;;6.95;5.03;;;;;;;12.22;59.94;102757.72;4979863;28;20045;-79
2022/04/15 10:13:06;;;;;;;7.35;5.07;;;;;;;12.26;61.05;102756.84;4980741;28;20030;-79
2022/04/15 10:15:33;;;;;;;7.40;4.57;;;;;;;12.30;61.19;102753.34;4978232;28;20038;-79
2022/04/15 10:18:02;;;;;;;5.90;4.68;;;;;;;12.35;60.89;102749.84;4977625;28;20093;-79
2022/04/15 10:20:32;;;;;;;5.90;4.72;;;;;;;12.34;59.66;102758.56;4977654;28;20045;-80
2022/04/15 10:23:11;;;;;;;5.40;4.07;;;;;;;12.30;61.38;102755.09;4979539;28;20089;-79
2022/04/15 10:25:38;;;;;;;7.13;4.25;;;;;;;12.18;59.89;102753.38;4978508;28;20053;-80
2022/04/15 10:28:09;;;;;;;8.88;4.75;;;;;;;12.12;61.06;102763.84;4983829;28;20022;-81
2022/04/15 10:30:34;;;;;;;6.40;4.63;;;;;;;12.11;60.19;102762.09;4984026;28;20045;-80
2022/04/15 10:33:00;;;;;;;5.70;4.47;;;;;;;12.22;60.88;102755.13;4982346;28;20172;-78
2022/04/15 10:35:29;;;;;;;8.25;4.80;;;;;;;12.34;59.60;102749.00;4983368;28;20034;-79
2022/04/15 10:37:55;;;;;;;7.85;4.70;;;;;;;12.37;60.87;102755.94;4983071;28;20050;-80
2022/04/15 10:40:23;;;;;;;7.72;4.45;;;;;;;12.29;60.70;102750.75;4983129;28;20037;-80
2022/04/15 10:42:48;;;;;;;6.35;4.57;;;;;;;12.30;59.08;102750.72;4982607;28;20117;-80
2022/04/15 10:45:27;;;;;;;6.38;4.18;;;;;;;12.46;59.84;102742.88;4982363;28;20042;-80
2022/04/15 10:48:01;;;;;;;5.93;4.13;;;;;;;12.62;60.22;102746.31;4981637;28;20486;-80
2022/04/15 10:50:28;;;;;;;5.60;4.43;;;;;;;12.67;59.20;102738.44;4986983;28;20034;-80
2022/04/15 10:53:17;;;;;;;7.47;4.70;;;;;;;12.77;60.54;102745.38;4990460;28;20369;-81
2022/04/15 10:55:47;;;;;;;5.88;4.70;;;;;;;12.90;59.93;102739.22;4989388;28;20470;-80
2022/04/15 10:58:14;;;;;;;6.30;4.68;;;;;;;12.96;59.34;102737.47;4988830;28;20038;-79
2022/04/15 11:03:26;;;;;;;6.55;4.78;;;;;;;12.95;58.62;102740.94;4988820;28;20046;-79
2022/04/15 11:05:55;;;;;;;7.07;4.90;;;;;;;12.99;59.61;102740.03;4987660;28;20540;-80
2022/04/15 11:08:22;;;;;;;5.97;4.65;;;;;;;13.08;59.23;102741.72;4974125;28;20676;-79
2022/04/15 11:10:55;;;;;;;6.32;4.93;;;;;;;13.12;59.43;102743.44;4973596;28;20026;-80
2022/04/15 11:13:32;;;;;;;6.35;4.50;;;;;;;13.10;57.72;102745.19;4991444;28;20045;-80
2022/04/15 11:16:11;;;;;;;5.45;4.65;;;;;;;13.05;58.35;102742.63;4989809;28;20117;-80
2022/04/15 11:18:53;;;;;;;5.97;4.40;;;;;;;13.10;59.58;102737.38;4989479;28;20049;-80
2022/04/15 11:21:23;;;;;;;7.88;4.47;;;;;;;13.20;58.32;102749.50;4989857;28;20022;-80
2022/04/15 11:23:53;;;;;;;7.82;4.47;;;;;;;13.24;57.15;102747.75;4989803;28;20061;-80
2022/04/15 11:26:20;;;;;;;5.90;4.47;;;;;;;13.16;57.65;102739.94;4992374;28;20034;-80
2022/04/15 11:28:47;;;;;;;6.22;4.15;;;;;;;13.00;57.70;102744.38;4992549;28;20496;-80